Time;durP1;ratioP1;P1;durP2;ratioP2;P2;SDS_P1;SDS_P2;PMS_P1;PMS_P2;Temp;Humidity;BMP_temperature;BMP_pressure;BME280_temperature;BME280_humidity;BME280_pressure;Samples;Min_cycle;Max_cycle;Signal;HPM_P1;HPM_P2
2022/09/17 00:01:00;;;;;;;12.82;2.70;;;10.70;99.90;;;;;;4995451;28;20446;-72
2022/09/17 00:03:27;;;;;;;13.20;1.45;;;10.70;99.90;;;;;;4995636;28;20483;-74
2022/09/17 00:06:09;;;;;;;10.02;1.50;;;10.70;99.90;;;;;;4995554;28;20049;-74
2022/09/17 00:08:37;;;;;;;9.43;1.23;;;10.70;99.90;;;;;;4995424;28;20046;-72
2022/09/17 00:11:10;;;;;;;11.75;1.40;;;10.70;99.90;;;;;;4996081;28;20046;-74
2022/09/17 00:13:36;;;;;;;14.80;2.15;;;10.60;99.90;;;;;;4995756;28;20045;-74
2022/09/17 00:16:02;;;;;;;9.50;1.40;;;10.70;99.90;;;;;;4995090;28;20066;-78
2022/09/17 00:18:28;;;;;;;13.85;2.22;;;10.60;99.90;;;;;;4995420;28;20034;-76
2022/09/17 00:20:54;;;;;;;8.50;1.65;;;10.70;99.90;;;;;;4995257;28;20035;-74
2022/09/17 00:23:19;;;;;;;6.88;1.58;;;10.70;99.90;;;;;;4977893;28;20051;-76
2022/09/17 00:25:45;;;;;;;11.27;1.98;;;10.70;99.90;;;;;;4995219;28;20038;-76
2022/09/17 00:28:12;;;;;;;8.25;1.48;;;10.70;99.90;;;;;;4995089;28;20076;-77
2022/09/17 00:30:40;;;;;;;8.55;1.75;;;10.70;99.90;;;;;;4994970;28;20069;-76
2022/09/17 00:33:06;;;;;;;9.93;2.30;;;10.70;99.90;;;;;;4995067;28;20391;-74
2022/09/17 00:35:32;;;;;;;13.82;1.85;;;10.70;99.90;;;;;;4995245;28;20141;-78
2022/09/17 00:37:57;;;;;;;11.98;1.88;;;10.70;99.90;;;;;;4995540;28;20042;-73
2022/09/17 00:40:23;;;;;;;7.88;2.10;;;10.60;99.90;;;;;;4994926;28;20083;-71
2022/09/17 00:42:49;;;;;;;11.27;1.83;;;10.60;99.90;;;;;;4993850;28;20050;-71
2022/09/17 00:45:15;;;;;;;7.80;1.30;;;11.00;99.90;;;;;;4995023;28;20117;-71
2022/09/17 00:47:48;;;;;;;12.23;2.22;;;10.70;99.90;;;;;;4994261;28;20605;-76
2022/09/17 00:50:21;;;;;;;10.65;1.50;;;10.60;99.90;;;;;;4994979;28;20058;-79
2022/09/17 00:52:55;;;;;;;8.80;2.42;;;10.70;99.90;;;;;;4977337;28;20058;-76
2022/09/17 00:55:35;;;;;;;13.15;1.48;;;10.70;99.90;;;;;;4977214;28;20050;-75
2022/09/17 00:58:02;;;;;;;7.57;1.38;;;10.70;99.90;;;;;;4994926;28;20042;-79
2022/09/17 01:00:31;;;;;;;11.40;1.35;;;10.60;99.90;;;;;;4977313;28;20125;-77
2022/09/17 01:02:57;;;;;;;7.70;1.40;;;10.60;99.90;;;;;;4994127;28;20047;-80
2022/09/17 01:05:39;;;;;;;8.90;1.50;;;10.60;99.90;;;;;;4977108;28;20046;-79
2022/09/17 01:08:33;;;;;;;8.70;1.37;;;10.70;99.90;;;;;;4994409;28;20061;-74
2022/09/17 01:11:32;;;;;;;13.48;2.70;;;10.60;99.90;;;;;;4900648;29;20063;-72
2022/09/17 01:14:21;;;;;;;12.68;2.15;;;10.60;99.90;;;;;;4899690;29;20059;-72
2022/09/17 01:17:09;;;;;;;11.48;1.50;;;10.60;99.90;;;;;;4898652;29;20095;-75
2022/09/17 01:20:06;;;;;;;13.27;1.70;;;10.60;99.90;;;;;;4899369;29;20488;-72
2022/09/17 01:23:08;;;;;;;11.95;1.98;;;10.60;99.90;;;;;;4915085;29;20056;-73
2022/09/17 01:25:47;;;;;;;6.03;1.77;;;10.50;99.90;;;;;;4915026;29;20052;-71
2022/09/17 01:28:39;;;;;;;9.38;1.60;;;10.60;99.90;;;;;;4899328;29;20241;-71
2022/09/17 01:31:16;;;;;;;11.75;1.30;;;10.70;99.90;;;;;;4899111;29;20056;-72
2022/09/17 01:33:57;;;;;;;8.10;1.52;;;10.50;99.90;;;;;;4914647;29;20059;-72
2022/09/17 01:36:41;;;;;;;14.30;1.75;;;10.50;99.90;;;;;;4914904;29;20091;-73
2022/09/17 01:39:44;;;;;;;15.18;1.85;;;10.50;99.90;;;;;;4914785;29;20500;-72
2022/09/17 01:42:24;;;;;;;14.02;1.83;;;10.50;99.90;;;;;;4915024;29;20389;-73
2022/09/17 01:44:59;;;;;;;8.80;1.52;;;10.40;99.90;;;;;;4899081;29;20130;-75
2022/09/17 01:47:38;;;;;;;12.55;1.63;;;10.40;99.90;;;;;;4936594;28;20062;-73
2022/09/17 01:50:28;;;;;;;5.43;1.20;;;10.30;99.90;;;;;;4993027;28;20042;-74
2022/09/17 01:52:56;;;;;;;9.25;1.35;;;10.30;99.90;;;;;;4976051;28;20050;-72
2022/09/17 01:55:28;;;;;;;8.38;1.83;;;10.30;99.90;;;;;;4993422;28;20086;-73
2022/09/17 01:58:06;;;;;;;8.35;1.50;;;10.30;99.90;;;;;;4993428;28;20097;-71
2022/09/17 02:00:32;;;;;;;11.00;1.90;;;10.30;99.90;;;;;;4993425;28;20085;-73
2022/09/17 02:03:03;;;;;;;11.88;2.00;;;10.30;99.90;;;;;;4976317;28;20442;-73
2022/09/17 02:05:38;;;;;;;10.68;1.90;;;10.30;99.90;;;;;;4993140;28;20050;-72
2022/09/17 02:08:15;;;;;;;9.60;1.42;;;10.30;99.90;;;;;;4993489;28;20108;-74
2022/09/17 02:10:55;;;;;;;12.90;1.48;;;10.40;99.90;;;;;;4975870;28;20053;-72
2022/09/17 02:13:31;;;;;;;12.07;1.40;;;10.30;99.90;;;;;;4993342;28;20499;-74
2022/09/17 02:16:07;;;;;;;7.20;1.33;;;10.20;99.90;;;;;;4993348;28;20433;-74
2022/09/17 02:18:42;;;;;;;12.40;2.03;;;10.10;99.90;;;;;;4975625;28;20046;-72
2022/09/17 02:21:18;;;;;;;11.82;1.58;;;10.00;99.90;;;;;;4992836;28;20173;-72
2022/09/17 02:24:11;;;;;;;11.02;2.50;;;10.00;99.90;;;;;;4975345;28;20046;-74
2022/09/17 02:26:44;;;;;;;9.05;1.67;;;10.00;99.90;;;;;;4961026;28;20097;-72
2022/09/17 02:29:20;;;;;;;10.95;2.08;;;9.90;99.90;;;;;;4993121;28;20081;-74
2022/09/17 02:31:46;;;;;;;15.30;2.00;;;9.90;99.90;;;;;;4993189;28;20050;-73
2022/09/17 02:34:13;;;;;;;11.55;2.08;;;9.80;99.90;;;;;;4975595;28;20123;-72
2022/09/17 02:36:38;;;;;;;10.43;1.83;;;9.80;99.90;;;;;;4992445;28;20054;-71
2022/09/17 02:39:04;;;;;;;13.45;1.83;;;9.70;99.90;;;;;;4993018;28;20100;-72
2022/09/17 02:41:54;;;;;;;13.70;1.55;;;9.60;99.90;;;;;;4975896;28;20090;-72
2022/09/17 02:44:44;;;;;;;12.10;1.75;;;9.50;99.90;;;;;;4975880;28;20089;-71
2022/09/17 02:47:34;;;;;;;8.93;1.80;;;9.40;99.90;;;;;;4993060;28;20054;-71
2022/09/17 02:50:13;;;;;;;10.63;1.40;;;9.30;99.90;;;;;;4975446;28;20410;-72
2022/09/17 02:52:58;;;;;;;12.05;1.88;;;9.30;99.90;;;;;;4975484;28;20383;-72
2022/09/17 02:56:01;;;;;;;8.20;1.60;;;9.20;99.90;;;;;;4992986;28;20053;-73
2022/09/17 02:58:44;;;;;;;15.18;1.67;;;9.10;99.90;;;;;;4959712;28;20077;-72
2022/09/17 03:01:45;;;;;;;9.07;1.48;;;9.10;99.90;;;;;;4975722;28;20394;-74
2022/09/17 03:04:15;;;;;;;8.52;1.20;;;9.10;99.90;;;;;;4975469;28;20050;-73
2022/09/17 03:06:44;;;;;;;9.93;1.65;;;9.20;99.90;;;;;;4977973;28;20049;-72
2022/09/17 03:09:10;;;;;;;7.32;1.45;;;9.00;99.90;;;;;;4978944;28;20399;-72
2022/09/17 03:11:36;;;;;;;17.05;2.28;;;9.00;99.90;;;;;;4996432;28;20053;-71
2022/09/17 03:14:01;;;;;;;13.20;1.88;;;9.00;99.90;;;;;;4978972;28;20042;-73
2022/09/17 03:16:27;;;;;;;11.40;1.73;;;9.00;99.90;;;;;;4979337;28;20090;-80
2022/09/17 03:18:53;;;;;;;12.45;1.70;;;9.20;99.90;;;;;;4996544;28;20049;-81
2022/09/17 03:21:18;;;;;;;8.77;1.30;;;8.90;99.90;;;;;;4996322;28;20053;-81
2022/09/17 03:23:45;;;;;;;9.05;1.42;;;8.90;99.90;;;;;;4978711;28;20402;-75
2022/09/17 03:26:11;;;;;;;9.70;1.30;;;9.00;99.90;;;;;;4978987;28;20084;-79
2022/09/17 03:28:37;;;;;;;8.30;1.70;;;8.80;99.90;;;;;;4978658;28;20570;-72
2022/09/17 03:31:04;;;;;;;9.25;1.33;;;8.80;99.90;;;;;;4978764;28;20190;-75
2022/09/17 03:33:30;;;;;;;8.18;1.30;;;8.90;99.90;;;;;;4979011;28;20038;-72
2022/09/17 03:35:56;;;;;;;9.13;1.10;;;8.90;99.90;;;;;;4996369;28;20057;-79
2022/09/17 03:38:22;;;;;;;10.65;1.60;;;8.90;99.90;;;;;;4978394;28;20046;-78
2022/09/17 03:40:57;;;;;;;11.00;1.50;;;9.20;99.90;;;;;;4996021;28;20412;-75
2022/09/17 03:43:23;;;;;;;10.65;1.55;;;8.90;99.90;;;;;;4978572;28;20049;-75
2022/09/17 03:45:49;;;;;;;14.73;1.60;;;8.90;99.90;;;;;;4995890;28;20046;-75
2022/09/17 03:48:14;;;;;;;12.23;1.73;;;8.90;99.90;;;;;;4962193;28;20135;-80
2022/09/17 03:50:40;;;;;;;10.73;1.58;;;8.90;99.90;;;;;;4978396;28;20124;-74
2022/09/17 03:53:05;;;;;;;9.35;1.67;;;9.00;99.90;;;;;;4995746;28;20050;-72
2022/09/17 03:55:31;;;;;;;10.77;1.38;;;9.00;99.90;;;;;;4995617;28;20053;-72
2022/09/17 03:57:56;;;;;;;11.57;2.42;;;8.90;99.90;;;;;;4995759;28;20137;-71
2022/09/17 04:00:23;;;;;;;11.75;1.60;;;8.80;99.90;;;;;;4995484;28;20397;-72
2022/09/17 04:02:48;;;;;;;8.98;1.42;;;8.80;99.90;;;;;;4978160;28;20084;-70
2022/09/17 04:05:14;;;;;;;13.10;1.38;;;8.80;99.90;;;;;;4995340;28;20448;-70
2022/09/17 04:07:40;;;;;;;13.93;1.85;;;8.70;99.90;;;;;;4995849;28;20049;-75
2022/09/17 04:10:07;;;;;;;16.35;1.80;;;8.70;99.90;;;;;;4995075;28;20061;-80
2022/09/17 04:12:32;;;;;;;9.45;1.60;;;8.60;99.90;;;;;;4995537;28;20065;-80
2022/09/17 04:14:58;;;;;;;5.60;1.60;;;8.70;99.90;;;;;;4995429;28;20050;-72
2022/09/17 04:17:23;;;;;;;10.18;1.73;;;8.60;99.90;;;;;;4977786;28;20399;-76
2022/09/17 04:19:49;;;;;;;13.98;2.15;;;8.60;99.90;;;;;;4995454;28;20046;-78
2022/09/17 04:22:15;;;;;;;9.52;1.50;;;8.60;99.90;;;;;;4978028;28;20054;-81
2022/09/17 04:24:40;;;;;;;9.95;1.30;;;8.60;99.90;;;;;;4977574;28;20046;-76
2022/09/17 04:27:06;;;;;;;6.03;1.00;;;8.80;99.90;;;;;;4995340;28;20035;-76
2022/09/17 04:29:32;;;;;;;9.27;1.58;;;8.70;99.90;;;;;;4994894;28;20042;-74
2022/09/17 04:31:57;;;;;;;11.18;1.30;;;8.70;99.90;;;;;;4977393;28;20062;-71
2022/09/17 04:34:23;;;;;;;10.80;1.60;;;8.70;99.90;;;;;;4977474;28;20030;-71
2022/09/17 04:36:48;;;;;;;9.02;1.60;;;8.60;99.90;;;;;;4978032;28;20446;-72
2022/09/17 04:39:14;;;;;;;5.68;1.60;;;8.60;99.90;;;;;;4995201;28;20045;-72
2022/09/17 04:41:40;;;;;;;13.00;1.80;;;8.60;99.90;;;;;;4977123;28;20055;-71
2022/09/17 04:44:06;;;;;;;7.32;1.20;;;8.60;99.90;;;;;;4977515;28;20058;-74
2022/09/17 04:46:32;;;;;;;9.65;1.50;;;8.50;99.90;;;;;;4977311;28;20125;-73
2022/09/17 04:48:57;;;;;;;11.07;1.30;;;8.50;99.90;;;;;;4977115;28;20097;-73
2022/09/17 04:51:23;;;;;;;7.75;1.75;;;8.40;99.90;;;;;;4994880;28;20121;-73
2022/09/17 04:53:49;;;;;;;6.78;1.20;;;8.50;99.90;;;;;;4977557;28;20058;-73
2022/09/17 04:56:14;;;;;;;9.13;1.55;;;8.50;99.90;;;;;;4994494;28;20046;-69
2022/09/17 04:58:40;;;;;;;4.63;1.13;;;8.60;99.90;;;;;;4994626;28;20038;-71
2022/09/17 05:01:06;;;;;;;9.32;1.25;;;8.70;99.90;;;;;;4976799;28;20081;-71
2022/09/17 05:03:31;;;;;;;12.93;1.35;;;8.70;99.90;;;;;;4977063;28;20046;-80
2022/09/17 05:05:57;;;;;;;9.70;1.40;;;8.70;99.90;;;;;;4977142;28;20056;-80
2022/09/17 05:08:24;;;;;;;8.32;1.33;;;9.10;99.90;;;;;;4960872;28;20092;-80
2022/09/17 05:10:52;;;;;;;8.55;1.15;;;8.90;99.90;;;;;;4976617;28;20046;-80
2022/09/17 05:13:18;;;;;;;11.45;1.40;;;8.90;99.90;;;;;;4993986;28;20129;-71
2022/09/17 05:15:44;;;;;;;5.43;1.10;;;8.90;99.90;;;;;;4976775;28;20050;-78
2022/09/17 05:18:09;;;;;;;8.05;1.08;;;9.00;99.90;;;;;;4976731;28;20117;-80
2022/09/17 05:20:35;;;;;;;7.68;1.23;;;9.00;99.90;;;;;;4994211;28;20177;-71
2022/09/17 05:23:00;;;;;;;4.85;0.90;;;8.90;99.90;;;;;;4976437;28;20046;-73
2022/09/17 05:25:26;;;;;;;11.43;1.63;;;8.90;99.90;;;;;;4993978;28;20049;-78
2022/09/17 05:27:53;;;;;;;9.05;1.15;;;8.90;99.90;;;;;;4976150;28;20509;-78
2022/09/17 05:30:19;;;;;;;10.80;1.20;;;8.80;99.90;;;;;;4976176;28;20050;-77
2022/09/17 05:32:45;;;;;;;8.35;2.05;;;8.80;99.90;;;;;;4994083;28;20045;-74
2022/09/17 05:35:11;;;;;;;4.63;0.77;;;8.70;99.90;;;;;;4994262;28;20052;-73
2022/09/17 05:37:37;;;;;;;8.15;1.42;;;8.70;99.90;;;;;;4976500;28;20054;-72
2022/09/17 05:40:05;;;;;;;4.93;0.73;;;8.70;99.90;;;;;;4976839;28;20129;-79
2022/09/17 05:42:31;;;;;;;6.97;0.80;;;8.70;99.90;;;;;;4976274;28;20433;-74
2022/09/17 05:44:57;;;;;;;11.23;1.42;;;8.70;99.90;;;;;;4993738;28;20065;-74
2022/09/17 05:47:22;;;;;;;6.22;1.20;;;8.90;99.90;;;;;;4993399;28;20511;-76
2022/09/17 05:49:48;;;;;;;10.07;1.17;;;8.70;99.90;;;;;;4975959;28;20055;-78
2022/09/17 05:52:15;;;;;;;5.63;1.30;;;9.00;99.90;;;;;;4976305;28;20061;-73
2022/09/17 05:54:40;;;;;;;6.20;0.98;;;8.60;99.90;;;;;;4976365;28;20394;-80
2022/09/17 05:57:06;;;;;;;6.75;1.25;;;8.60;99.90;;;;;;4993729;28;20123;-80
2022/09/17 05:59:32;;;;;;;10.85;1.45;;;8.60;99.90;;;;;;4943818;28;20100;-73
2022/09/17 06:01:58;;;;;;;8.82;1.00;;;8.50;99.90;;;;;;4993457;28;20398;-73
2022/09/17 06:04:23;;;;;;;4.93;1.10;;;8.60;99.90;;;;;;4975867;28;20428;-71
2022/09/17 06:06:49;;;;;;;7.88;1.20;;;8.60;99.90;;;;;;4976273;28;20376;-73
2022/09/17 06:09:14;;;;;;;8.45;1.30;;;8.70;99.90;;;;;;4976256;28;20054;-72
2022/09/17 06:11:40;;;;;;;8.48;1.27;;;8.70;99.90;;;;;;4975784;28;20482;-73
2022/09/17 06:14:07;;;;;;;9.02;1.20;;;8.90;99.90;;;;;;4975162;28;20147;-73
2022/09/17 06:16:33;;;;;;;10.73;1.88;;;9.00;99.90;;;;;;4993295;28;20050;-74
2022/09/17 06:18:58;;;;;;;9.35;1.42;;;9.20;99.90;;;;;;4993000;28;20414;-72
2022/09/17 06:21:24;;;;;;;4.20;0.80;;;9.20;99.90;;;;;;4993319;28;20061;-73
2022/09/17 06:23:50;;;;;;;6.25;1.05;;;9.40;99.90;;;;;;4975739;28;20061;-71
2022/09/17 06:26:16;;;;;;;9.38;1.58;;;9.30;99.90;;;;;;4959366;28;20054;-74
2022/09/17 06:28:42;;;;;;;9.38;1.00;;;9.40;99.90;;;;;;4993156;28;20092;-75
2022/09/17 06:31:09;;;;;;;14.23;2.22;;;9.40;99.90;;;;;;4975202;28;20094;-70
2022/09/17 06:33:35;;;;;;;6.43;0.90;;;9.50;99.90;;;;;;4993007;28;20050;-77
2022/09/17 06:36:04;;;;;;;6.55;1.40;;;9.70;99.90;;;;;;4993357;28;20406;-71
2022/09/17 06:38:31;;;;;;;5.47;1.05;;;10.40;99.90;;;;;;4993319;28;20047;-72
2022/09/17 06:40:57;;;;;;;9.07;1.05;;;10.10;99.90;;;;;;4994736;28;20038;-71
2022/09/17 06:43:23;;;;;;;6.40;1.00;;;10.40;99.90;;;;;;4979522;28;20573;-71
2022/09/17 06:45:53;;;;;;;5.05;1.23;;;10.60;99.90;;;;;;4996696;28;20042;-72
2022/09/17 06:48:19;;;;;;;4.65;0.60;;;10.80;99.90;;;;;;4996761;28;20057;-78
2022/09/17 06:50:44;;;;;;;7.15;1.27;;;10.80;99.90;;;;;;4997213;28;20054;-71
2022/09/17 06:53:10;;;;;;;5.15;1.27;;;10.80;99.90;;;;;;4979726;28;20115;-76
2022/09/17 06:55:36;;;;;;;6.65;0.82;;;10.70;99.90;;;;;;4996987;28;20441;-76
2022/09/17 06:58:01;;;;;;;5.78;1.20;;;10.60;99.90;;;;;;4996810;28;20042;-68
2022/09/17 07:00:27;;;;;;;3.95;0.68;;;10.50;99.90;;;;;;4996505;28;20185;-70
2022/09/17 07:03:00;;;;;;;4.18;0.82;;;10.50;99.90;;;;;;4979429;28;20038;-71
2022/09/17 07:05:26;;;;;;;4.97;0.80;;;10.30;99.90;;;;;;4996388;28;20368;-73
2022/09/17 07:07:53;;;;;;;5.43;0.85;;;10.20;99.90;;;;;;4978561;28;20042;-72
2022/09/17 07:10:19;;;;;;;7.50;0.88;;;10.20;99.90;;;;;;4996477;28;20046;-72
2022/09/17 07:12:45;;;;;;;6.25;1.27;;;10.30;99.90;;;;;;4996806;28;20487;-71
2022/09/17 07:15:11;;;;;;;5.85;0.98;;;10.20;99.90;;;;;;4979078;28;20046;-70
2022/09/17 07:17:39;;;;;;;3.80;0.73;;;10.40;99.90;;;;;;4996007;28;20439;-72
2022/09/17 07:20:06;;;;;;;3.75;0.80;;;10.50;99.90;;;;;;4996395;28;20054;-74
2022/09/17 07:22:32;;;;;;;5.43;0.90;;;10.60;99.90;;;;;;4978544;28;20116;-71
2022/09/17 07:24:57;;;;;;;8.77;0.98;;;10.60;99.90;;;;;;4996140;28;20078;-72
2022/09/17 07:27:25;;;;;;;8.93;0.95;;;10.60;99.90;;;;;;4978678;28;20109;-72
2022/09/17 07:29:51;;;;;;;1.95;0.50;;;10.50;99.90;;;;;;4979095;28;20067;-72
2022/09/17 07:32:17;;;;;;;1.95;0.57;;;10.40;99.90;;;;;;4996146;28;20508;-70
2022/09/17 07:34:42;;;;;;;5.85;1.15;;;10.40;99.90;;;;;;4978493;28;20054;-71
2022/09/17 07:37:08;;;;;;;3.67;0.80;;;10.50;99.90;;;;;;4978736;28;20145;-71
2022/09/17 07:39:34;;;;;;;7.30;0.93;;;10.50;99.90;;;;;;4979233;28;20128;-72
2022/09/17 07:41:59;;;;;;;5.80;0.68;;;10.60;99.90;;;;;;4962118;28;20050;-72
2022/09/17 07:44:26;;;;;;;9.98;1.25;;;10.70;99.90;;;;;;4996029;28;20045;-70
2022/09/17 07:46:52;;;;;;;3.80;0.55;;;10.90;99.90;;;;;;4995809;28;20117;-71
2022/09/17 07:49:18;;;;;;;5.53;0.77;;;11.10;99.90;;;;;;4995317;28;20134;-72
2022/09/17 07:51:44;;;;;;;3.67;0.82;;;11.20;99.90;;;;;;4977940;28;20055;-75
2022/09/17 07:54:09;;;;;;;3.30;0.73;;;11.30;99.90;;;;;;4996061;28;20411;-72
2022/09/17 07:56:35;;;;;;;2.72;0.60;;;11.50;99.90;;;;;;4995930;28;20073;-72
2022/09/17 07:59:02;;;;;;;7.13;0.70;;;11.50;99.90;;;;;;4995602;28;20038;-73
2022/09/17 08:01:28;;;;;;;2.80;0.60;;;11.40;99.90;;;;;;4995690;28;20046;-71
2022/09/17 08:03:54;;;;;;;4.95;0.60;;;11.40;99.90;;;;;;4977656;28;20044;-71
2022/09/17 08:06:24;;;;;;;4.85;0.98;;;11.50;99.90;;;;;;4978240;28;20105;-71
2022/09/17 08:08:50;;;;;;;4.93;0.77;;;11.60;99.90;;;;;;4995526;28;20042;-73
2022/09/17 08:11:18;;;;;;;2.22;0.75;;;11.70;99.90;;;;;;4995586;28;20057;-71
2022/09/17 08:13:48;;;;;;;11.52;1.10;;;11.80;99.90;;;;;;4978196;28;20092;-70
2022/09/17 08:16:14;;;;;;;6.85;1.00;;;12.10;99.90;;;;;;4995597;28;20042;-71
2022/09/17 08:18:43;;;;;;;4.07;1.02;;;12.30;99.90;;;;;;4977233;28;20065;-71
2022/09/17 08:21:11;;;;;;;4.57;0.98;;;12.40;99.90;;;;;;4977932;28;20121;-70
2022/09/17 08:23:40;;;;;;;11.13;1.40;;;12.30;99.90;;;;;;4995606;28;20054;-72
2022/09/17 08:26:10;;;;;;;4.78;0.75;;;12.20;99.90;;;;;;4995585;28;20085;-71
2022/09/17 08:28:36;;;;;;;7.32;1.25;;;12.00;99.90;;;;;;4978356;28;20058;-69
2022/09/17 08:31:04;;;;;;;9.38;1.40;;;11.90;99.90;;;;;;4994857;28;20509;-72
2022/09/17 08:33:32;;;;;;;4.20;0.90;;;11.70;99.90;;;;;;4977639;28;20482;-70
2022/09/17 08:36:01;;;;;;;2.13;0.77;;;11.60;99.90;;;;;;4994704;28;20498;-71
2022/09/17 08:38:28;;;;;;;7.88;1.20;;;11.50;99.90;;;;;;4977567;28;20061;-70
2022/09/17 08:41:09;;;;;;;10.02;1.23;;;11.40;99.90;;;;;;4977654;28;20104;-72
2022/09/17 08:43:51;;;;;;;3.78;1.02;;;11.60;99.90;;;;;;4995110;28;20448;-72
2022/09/17 08:46:19;;;;;;;2.60;0.60;;;11.90;99.90;;;;;;4995275;28;20070;-73
2022/09/17 08:49:14;;;;;;;3.58;0.70;;;12.20;99.90;;;;;;4994748;28;20507;-71
2022/09/17 08:51:50;;;;;;;5.32;0.70;;;12.40;99.90;;;;;;4994586;28;20422;-71
2022/09/17 08:54:35;;;;;;;5.97;0.98;;;12.50;99.90;;;;;;4994657;28;20515;-72
2022/09/17 08:57:33;;;;;;;7.90;1.02;;;12.40;99.90;;;;;;4995142;28;20042;-71
2022/09/17 09:00:13;;;;;;;6.20;1.10;;;12.40;99.90;;;;;;4994717;28;20038;-71
2022/09/17 09:03:07;;;;;;;10.00;0.90;;;12.60;99.90;;;;;;4994233;28;20077;-70
2022/09/17 09:05:46;;;;;;;6.18;0.90;;;12.70;99.90;;;;;;4994427;28;20481;-72
2022/09/17 09:08:30;;;;;;;3.10;0.85;;;12.80;99.90;;;;;;4994434;28;20177;-71
2022/09/17 09:11:02;;;;;;;7.50;1.50;;;12.90;99.90;;;;;;4976910;28;20058;-71
2022/09/17 09:13:34;;;;;;;5.78;0.80;;;12.90;99.90;;;;;;4994538;28;20058;-72
2022/09/17 09:16:13;;;;;;;5.13;0.73;;;13.10;99.90;;;;;;4993317;28;20398;-73
2022/09/17 09:18:41;;;;;;;4.13;0.75;;;13.30;99.90;;;;;;4993361;28;20050;-70
2022/09/17 09:21:26;;;;;;;4.32;0.70;;;13.40;99.90;;;;;;4976110;28;20088;-72
2022/09/17 09:24:17;;;;;;;1.50;0.60;;;13.60;99.90;;;;;;4997570;28;20128;-73
2022/09/17 09:26:56;;;;;;;9.60;1.20;;;13.80;99.90;;;;;;4997599;28;20049;-74
2022/09/17 09:29:30;;;;;;;6.55;0.88;;;13.80;99.90;;;;;;4998379;28;20080;-74
2022/09/17 09:32:27;;;;;;;3.97;0.93;;;12.80;99.90;;;;;;5011725;28;20387;-72
2022/09/17 09:34:54;;;;;;;4.18;0.50;;;12.10;99.90;;;;;;5010878;28;20133;-73
2022/09/17 09:37:27;;;;;;;5.10;0.82;;;11.60;99.90;;;;;;4993140;28;20494;-71
2022/09/17 09:39:59;;;;;;;2.83;0.68;;;11.30;99.90;;;;;;4992601;28;20045;-72
2022/09/17 09:42:28;;;;;;;9.45;1.67;;;11.10;99.90;;;;;;5010629;28;20576;-73
2022/09/17 09:45:01;;;;;;;9.27;1.00;;;11.00;99.90;;;;;;5011086;28;20050;-72
2022/09/17 09:47:53;;;;;;;7.05;1.30;;;11.10;99.90;;;;;;5012550;28;20092;-71
2022/09/17 09:50:33;;;;;;;2.78;1.13;;;11.40;99.90;;;;;;4999201;28;20056;-76
2022/09/17 09:53:30;;;;;;;7.53;1.13;;;11.80;99.90;;;;;;5001046;28;20061;-79
2022/09/17 09:56:15;;;;;;;6.35;1.23;;;11.90;99.90;;;;;;5011175;28;20501;-77
2022/09/17 09:58:41;;;;;;;4.07;0.80;;;12.20;99.90;;;;;;5009635;28;20053;-73
2022/09/17 10:01:15;;;;;;;4.20;0.90;;;12.60;99.90;;;;;;5011535;28;20050;-73
2022/09/17 10:03:44;;;;;;;5.22;0.80;;;12.80;99.90;;;;;;5012200;28;20576;-76
2022/09/17 10:06:12;;;;;;;7.78;0.93;;;12.90;99.90;;;;;;5004638;28;20041;-74
2022/09/17 10:08:40;;;;;;;5.32;0.80;;;13.10;99.90;;;;;;5002499;28;20042;-72
2022/09/17 10:11:11;;;;;;;5.45;1.65;;;13.40;99.90;;;;;;5003053;28;20482;-72
2022/09/17 10:13:38;;;;;;;4.45;0.82;;;13.60;99.90;;;;;;5010050;28;20038;-69
2022/09/17 10:16:24;;;;;;;7.65;1.30;;;13.70;99.90;;;;;;5012873;28;20053;-71
2022/09/17 10:19:28;;;;;;;8.45;1.05;;;13.70;99.90;;;;;;4995478;28;20049;-71
2022/09/17 10:21:54;;;;;;;6.72;0.95;;;13.50;99.90;;;;;;4995351;28;20580;-73
2022/09/17 10:24:30;;;;;;;6.85;1.15;;;13.60;99.90;;;;;;4995104;28;20038;-71
2022/09/17 10:27:26;;;;;;;8.07;1.10;;;13.60;99.90;;;;;;5013149;28;20041;-72
2022/09/17 10:29:57;;;;;;;6.93;0.88;;;13.70;99.90;;;;;;4975057;28;20066;-72
2022/09/17 10:32:22;;;;;;;7.32;1.05;;;13.80;99.90;;;;;;4991148;28;20057;-72
2022/09/17 10:35:05;;;;;;;7.57;1.13;;;13.90;99.90;;;;;;4991200;28;20062;-71
2022/09/17 10:37:45;;;;;;;6.25;1.35;;;14.20;99.90;;;;;;4974779;28;20133;-72
2022/09/17 10:40:19;;;;;;;3.28;1.10;;;14.30;99.90;;;;;;4974756;28;20096;-72
2022/09/17 10:42:46;;;;;;;4.85;0.95;;;14.40;99.90;;;;;;4975168;28;20042;-71
2022/09/17 10:45:29;;;;;;;7.00;0.93;;;14.60;99.90;;;;;;4991022;28;20054;-71
2022/09/17 10:47:59;;;;;;;4.93;0.77;;;14.70;99.90;;;;;;4974859;28;20046;-71
2022/09/17 10:50:29;;;;;;;7.45;0.90;;;14.80;99.90;;;;;;4974711;28;20058;-72
2022/09/17 10:53:01;;;;;;;6.03;0.93;;;15.00;99.90;;;;;;4990911;28;20059;-72
2022/09/17 10:55:35;;;;;;;4.65;1.02;;;15.30;99.90;;;;;;4990627;28;20054;-70
2022/09/17 10:58:07;;;;;;;3.25;0.68;;;15.20;99.90;;;;;;4990970;28;20411;-72
2022/09/17 11:00:51;;;;;;;7.63;1.10;;;14.90;99.90;;;;;;4991076;28;20054;-71
2022/09/17 11:03:44;;;;;;;2.72;0.68;;;14.40;99.90;;;;;;4991031;28;20046;-74
2022/09/17 11:06:15;;;;;;;14.85;1.38;;;14.10;99.90;;;;;;5000648;28;20078;-71
2022/09/17 11:08:51;;;;;;;5.30;1.20;;;14.00;99.90;;;;;;4995066;28;20046;-72
2022/09/17 11:11:31;;;;;;;8.90;1.10;;;14.20;99.90;;;;;;5012187;28;20081;-71
2022/09/17 11:14:09;;;;;;;4.93;1.00;;;14.40;99.90;;;;;;5012487;28;20038;-70
2022/09/17 11:17:06;;;;;;;7.13;1.30;;;14.80;99.90;;;;;;4994208;28;20045;-73
2022/09/17 11:19:57;;;;;;;4.45;1.00;;;15.10;99.90;;;;;;4994599;28;20053;-70
2022/09/17 11:22:46;;;;;;;9.57;0.90;;;15.50;99.90;;;;;;5012687;28;20081;-73
2022/09/17 11:25:39;;;;;;;5.70;1.20;;;15.70;99.90;;;;;;4990665;28;20554;-76
2022/09/17 11:28:27;;;;;;;5.63;1.15;;;15.60;99.90;;;;;;4977342;28;20141;-72
2022/09/17 11:31:11;;;;;;;4.70;0.80;;;15.80;99.90;;;;;;4994411;28;20066;-80
2022/09/17 11:33:54;;;;;;;8.52;0.90;;;15.50;99.90;;;;;;4977826;28;20046;-72
2022/09/17 11:36:25;;;;;;;3.60;0.65;;;15.30;99.90;;;;;;4994607;28;20145;-80
2022/09/17 11:38:55;;;;;;;8.93;1.15;;;15.20;99.90;;;;;;4962206;28;20580;-79
2022/09/17 11:41:36;;;;;;;5.70;1.27;;;15.20;99.90;;;;;;4994586;28;20101;-82
2022/09/17 11:44:21;;;;;;;5.93;1.25;;;15.60;99.90;;;;;;4994329;28;20089;-78
2022/09/17 11:46:56;;;;;;;7.78;1.60;;;15.70;99.90;;;;;;4978253;28;20137;-74
2022/09/17 11:49:49;;;;;;;6.25;1.00;;;15.90;99.90;;;;;;4978558;28;20046;-74
2022/09/17 11:52:17;;;;;;;;;;;16.00;99.90;;;;;;4978072;28;20046;-77
2022/09/17 11:54:57;;;;;;;10.18;1.40;;;16.10;99.90;;;;;;4961621;28;20027;-76
2022/09/17 11:57:31;;;;;;;8.25;1.52;;;16.10;99.90;;;;;;4993682;28;20042;-78
2022/09/17 12:00:12;;;;;;;6.38;1.52;;;16.20;99.90;;;;;;4994010;28;20129;-72
2022/09/17 12:05:19;;;;;;;6.95;1.30;;;16.30;99.90;;;;;;5419597;22;20057;-72
2022/09/17 12:08:23;;;;;;;10.85;1.13;;;16.30;99.90;;;;;;5037098;28;20136;-72
2022/09/17 12:11:00;;;;;;;8.63;1.30;;;16.10;99.90;;;;;;5037347;28;20060;-72
2022/09/17 12:13:45;;;;;;;11.45;1.45;;;15.80;99.90;;;;;;5036926;28;20140;-72
2022/09/17 12:16:31;;;;;;;4.15;0.88;;;15.60;99.90;;;;;;5054683;28;20044;-72
2022/09/17 12:19:00;;;;;;;4.57;0.88;;;15.60;99.90;;;;;;5037130;28;20122;-70
2022/09/17 12:21:40;;;;;;;10.27;1.60;;;15.70;99.90;;;;;;5037046;28;20163;-73
2022/09/17 12:24:25;;;;;;;6.28;0.90;;;15.80;99.90;;;;;;5054640;28;20450;-74
2022/09/17 12:27:09;;;;;;;6.65;1.65;;;15.80;99.90;;;;;;5054865;28;20041;-79
2022/09/17 12:30:05;;;;;;;6.40;0.93;;;16.00;99.90;;;;;;5054154;28;20045;-80
2022/09/17 12:32:42;;;;;;;8.02;1.52;;;16.00;99.90;;;;;;5054556;28;20227;-81
2022/09/17 12:35:35;;;;;;;6.90;1.05;;;16.20;99.90;;;;;;5054592;28;20516;-78
2022/09/17 12:38:38;;;;;;;8.48;1.15;;;16.10;99.90;;;;;;5035503;28;20131;-81
2022/09/17 12:41:14;;;;;;;4.57;1.45;;;16.00;99.90;;;;;;5036538;28;20097;-79
2022/09/17 12:44:01;;;;;;;6.57;0.98;;;16.10;99.90;;;;;;5035886;28;20049;-80
2022/09/17 12:47:23;;;;;;;5.05;1.42;;;16.20;99.90;;;;;;5036690;28;20052;-79
2022/09/17 12:50:07;;;;;;;5.43;0.88;;;16.00;99.90;;;;;;4954100;29;20043;-82
2022/09/17 12:53:09;;;;;;;6.35;1.05;;;16.00;99.90;;;;;;4938204;29;20111;-79
2022/09/17 12:55:45;;;;;;;6.68;0.70;;;16.10;99.90;;;;;;4954234;29;20094;-80
2022/09/17 12:58:22;;;;;;;9.98;1.50;;;16.00;99.90;;;;;;4953929;29;20046;-74
2022/09/17 13:00:54;;;;;;;7.22;1.00;;;15.80;99.90;;;;;;4937557;29;20062;-77
2022/09/17 13:03:29;;;;;;;;;;;15.70;99.90;;;;;;4938318;29;20058;-78
2022/09/17 13:06:13;;;;;;;6.18;0.82;;;15.80;99.90;;;;;;4953760;29;19923;-78
2022/09/17 13:09:33;;;;;;;7.72;0.93;;;15.90;99.90;;;;;;4937881;29;20051;-75
2022/09/17 13:12:35;;;;;;;4.50;0.82;;;16.00;99.90;;;;;;4915554;29;20044;-76
2022/09/17 13:15:31;;;;;;;5.63;1.00;;;16.10;99.90;;;;;;4899599;29;20119;-79
2022/09/17 13:18:10;;;;;;;1.25;0.47;;;15.90;99.90;;;;;;4915519;29;20056;-79
2022/09/17 13:21:13;;;;;;;5.20;0.70;;;15.80;99.90;;;;;;4947695;28;20136;-78
2022/09/17 13:23:44;;;;;;;5.22;0.90;;;15.80;99.90;;;;;;4953488;29;20497;-79